This is the latest recevied weather packets stored in our database for station/object DO0SOB-11. If no packets are shown the sender has not sent any weather packets the latest 10 day(s).
| Time | Temp. | Humidity | Pressure | Rain* | Wind** | Luminosity | Snow |
|---|---|---|---|---|---|---|---|
| 1777325345 | 9.44° C | 100% | 981.9 hPa | - | - | - | - |
| 1777324445 | 10° C | 100% | 981.9 hPa | - | - | - | - |
| 1777323545 | 9.44° C | 100% | 981.9 hPa | - | - | - | - |
| 1777322645 | 10° C | 100% | 981.8 hPa | - | - | - | - |
| 1777321745 | 10° C | 100% | 981.9 hPa | - | - | - | - |
| 1777320845 | 10° C | 100% | 982.1 hPa | - | - | - | - |
| 1777319945 | 10° C | 100% | 982.1 hPa | - | - | - | - |
| 1777319044 | 10° C | 100% | 982.1 hPa | - | - | - | - |
| 1777318144 | 10.56° C | 100% | 982 hPa | - | - | - | - |
| 1777317244 | 11.11° C | 100% | 982 hPa | - | - | - | - |
| 1777316344 | 11.11° C | 100% | 982 hPa | - | - | - | - |
| 1777315444 | 11.11° C | 100% | 982 hPa | - | - | - | - |
| 1777314544 | 11.67° C | 100% | 981.9 hPa | - | - | - | - |
| 1777313644 | 12.22° C | 100% | 981.9 hPa | - | - | - | - |
| 1777312744 | 13.33° C | 98% | 982 hPa | - | - | - | - |
| 1777311844 | 13.33° C | 88% | 981.9 hPa | - | - | - | - |
| 1777310944 | 13.89° C | 78% | 982 hPa | - | - | - | - |
| 1777310044 | 16.11° C | 60% | 982 hPa | - | - | - | - |
| 1777309144 | 16.11° C | 55% | 982 hPa | - | - | - | - |
| 1777308244 | 15.56° C | 64% | 982 hPa | - | - | - | - |
| 1777307344 | 17.22° C | 49% | 982.1 hPa | - | - | - | - |
| 1777306443 | 17.22° C | 47% | 982.3 hPa | - | - | - | - |
| 1777305543 | 16.11° C | 48% | 982.4 hPa | - | - | - | - |
| 1777304643 | 16.67° C | 46% | 982.6 hPa | - | - | - | - |
| 1777303743 | 16.11° C | 44% | 982.5 hPa | - | - | - | - |
* Rain since midnight (hover to see other rain measurements)
** Current wind speed in m/s (hover to see current wind gust speed)